Time;durP1;ratioP1;P1;durP2;ratioP2;P2;SDS_P1;SDS_P2;PMS_P1;PMS_P2;Temp;Humidity;BMP_temperature;BMP_pressure;BME280_temperature;BME280_humidity;BME280_pressure;Samples;Min_cycle;Max_cycle;Signal;HPM_P1;HPM_P2
2023/01/25 00:02:14;;;;;;;21.63;14.43;;;4.40;1.00;;;;;;5051953;28;20674;-52
2023/01/25 00:04:39;;;;;;;23.67;15.17;;;4.30;1.00;;;;;;5058423;28;20274;-54
2023/01/25 00:07:05;;;;;;;20.93;13.40;;;4.40;1.00;;;;;;5048129;28;20198;-54
2023/01/25 00:09:30;;;;;;;30.73;16.80;;;4.50;1.00;;;;;;5050076;28;20277;-55
2023/01/25 00:11:57;;;;;;;22.83;14.03;;;4.50;1.00;;;;;;5045297;28;20190;-55
2023/01/25 00:14:23;;;;;;;22.97;13.77;;;4.60;1.00;;;;;;5053790;28;20222;-53
2023/01/25 00:16:49;;;;;;;24.67;15.37;;;4.60;1.00;;;;;;5046486;28;20521;-53
2023/01/25 00:19:14;;;;;;;37.13;16.93;;;4.60;1.00;;;;;;5045703;28;20495;-54
2023/01/25 00:21:40;;;;;;;21.73;14.43;;;4.70;1.00;;;;;;5047816;28;20458;-53
2023/01/25 00:24:06;;;;;;;21.63;14.73;;;4.70;1.00;;;;;;5049484;28;20202;-52
2023/01/25 00:26:33;;;;;;;23.80;12.37;;;4.70;1.00;;;;;;5045244;28;20199;-54
2023/01/25 00:28:59;;;;;;;22.90;15.07;;;4.70;1.00;;;;;;5050069;28;20447;-56
2023/01/25 00:31:33;;;;;;;24.57;14.70;;;4.70;1.00;;;;;;5047909;28;20818;-53
2023/01/25 00:34:17;;;;;;;23.33;13.60;;;4.70;1.00;;;;;;5046228;28;20914;-54
2023/01/25 00:36:44;;;;;;;21.07;14.07;;;4.70;1.00;;;;;;5049119;28;20437;-55
2023/01/25 00:39:12;;;;;;;22.80;15.37;;;4.70;1.00;;;;;;5048999;28;20547;-53
2023/01/25 00:41:38;;;;;;;23.23;13.87;;;4.80;1.00;;;;;;5051286;28;20446;-54
2023/01/25 00:44:05;;;;;;;19.20;12.80;;;4.90;1.00;;;;;;5049777;28;20522;-53
2023/01/25 00:46:30;;;;;;;19.57;12.10;;;4.90;1.00;;;;;;5045214;28;20448;-55
2023/01/25 00:48:56;;;;;;;19.57;12.77;;;4.80;1.00;;;;;;5044785;28;20447;-54
2023/01/25 00:51:23;;;;;;;25.30;14.33;;;4.80;1.00;;;;;;5047403;28;20219;-54
2023/01/25 00:53:48;;;;;;;18.57;13.07;;;4.80;1.00;;;;;;5048143;28;20422;-55
2023/01/25 00:56:14;;;;;;;22.80;14.07;;;4.80;1.00;;;;;;5044819;28;20458;-56
2023/01/25 00:58:40;;;;;;;19.23;13.67;;;4.80;1.00;;;;;;5049536;28;20274;-53
2023/01/25 01:01:06;;;;;;;20.80;13.63;;;4.80;1.00;;;;;;5048914;28;20205;-54
2023/01/25 01:03:32;;;;;;;21.53;14.27;;;4.80;1.00;;;;;;5054361;28;20452;-54
2023/01/25 01:06:03;;;;;;;21.47;14.27;;;4.70;1.00;;;;;;5047024;28;20457;-54
2023/01/25 01:08:28;;;;;;;19.63;12.10;;;4.60;1.00;;;;;;5043449;28;20668;-53
2023/01/25 01:11:02;;;;;;;19.13;12.17;;;4.60;1.00;;;;;;5045085;28;20492;-54
2023/01/25 01:13:29;;;;;;;21.30;12.60;;;4.60;1.00;;;;;;5044512;28;20199;-53
2023/01/25 01:15:55;;;;;;;21.00;12.00;;;4.60;1.00;;;;;;5045211;28;20545;-55
2023/01/25 01:18:21;;;;;;;20.97;14.07;;;4.50;1.00;;;;;;5045214;28;20444;-56
2023/01/25 01:20:49;;;;;;;16.97;11.30;;;4.50;1.00;;;;;;5045714;28;20456;-54
2023/01/25 01:23:14;;;;;;;20.40;13.33;;;4.50;1.00;;;;;;5051377;28;20449;-54
2023/01/25 01:25:40;;;;;;;19.77;12.83;;;4.60;1.00;;;;;;5055686;28;20542;-53
2023/01/25 01:28:06;;;;;;;17.17;12.50;;;4.70;1.00;;;;;;5044256;28;20204;-55
2023/01/25 01:30:31;;;;;;;18.63;12.00;;;4.60;1.00;;;;;;5047597;28;20214;-54
2023/01/25 01:32:57;;;;;;;17.80;11.80;;;4.70;1.00;;;;;;5045589;28;20183;-52
2023/01/25 01:35:22;;;;;;;21.20;12.00;;;4.60;1.00;;;;;;5045464;28;20218;-55
2023/01/25 01:37:48;;;;;;;18.23;11.00;;;4.70;1.00;;;;;;5046694;28;20195;-58
2023/01/25 01:40:15;;;;;;;15.93;10.77;;;4.60;1.00;;;;;;5048212;28;20201;-53
2023/01/25 01:42:58;;;;;;;16.37;11.03;;;4.60;1.00;;;;;;5045733;28;20249;-54
2023/01/25 01:45:42;;;;;;;20.10;12.33;;;4.60;1.00;;;;;;5048938;28;20462;-55
2023/01/25 01:48:22;;;;;;;18.53;11.93;;;4.60;1.00;;;;;;5046075;28;20499;-55
2023/01/25 01:50:52;;;;;;;16.47;11.60;;;4.60;1.00;;;;;;5046467;28;20483;-55
2023/01/25 01:53:19;;;;;;;17.90;10.87;;;4.70;1.00;;;;;;5046258;28;20472;-55
2023/01/25 01:55:46;;;;;;;17.40;11.20;;;4.70;1.00;;;;;;5045219;28;20456;-54
2023/01/25 01:58:12;;;;;;;18.40;12.77;;;4.80;1.00;;;;;;5044199;28;20940;-55
2023/01/25 02:00:40;;;;;;;22.17;12.23;;;4.80;1.00;;;;;;5045610;28;20506;-55
2023/01/25 02:03:06;;;;;;;16.80;11.13;;;4.70;1.00;;;;;;5046184;28;20449;-54
2023/01/25 02:05:48;;;;;;;17.17;11.20;;;4.80;1.00;;;;;;5045510;28;20464;-54
2023/01/25 02:08:14;;;;;;;15.33;10.63;;;4.70;1.00;;;;;;5042336;28;20443;-54
2023/01/25 02:10:42;;;;;;;18.30;11.93;;;4.60;1.00;;;;;;5050952;28;20839;-55
2023/01/25 02:13:08;;;;;;;16.93;11.03;;;4.60;1.00;;;;;;5045053;28;20450;-53
2023/01/25 02:15:47;;;;;;;22.63;13.53;;;4.60;1.00;;;;;;5046700;28;20449;-54
2023/01/25 02:18:13;;;;;;;19.40;11.80;;;4.60;1.00;;;;;;5040630;28;20265;-54
2023/01/25 02:20:44;;;;;;;17.90;11.90;;;4.60;1.00;;;;;;5044269;28;20535;-56
2023/01/25 02:23:31;;;;;;;19.00;12.53;;;4.50;1.00;;;;;;5048014;28;20449;-53
2023/01/25 02:26:00;;;;;;;21.53;11.83;;;4.50;1.00;;;;;;5046998;28;20501;-54
2023/01/25 02:28:40;;;;;;;23.33;13.90;;;4.50;1.00;;;;;;5044629;28;20463;-55
2023/01/25 02:31:06;;;;;;;18.63;11.40;;;4.50;1.00;;;;;;5043063;28;20476;-53
2023/01/25 02:33:32;;;;;;;19.17;12.73;;;4.50;1.00;;;;;;5047061;28;20972;-53
2023/01/25 02:36:06;;;;;;;17.03;11.77;;;4.50;1.00;;;;;;5042063;28;20547;-52
2023/01/25 02:38:40;;;;;;;15.80;11.50;;;4.50;1.00;;;;;;5043084;28;20551;-53
2023/01/25 02:41:14;;;;;;;18.40;11.90;;;4.40;1.00;;;;;;5046928;28;20925;-55
2023/01/25 02:43:40;;;;;;;21.37;13.50;;;4.50;1.00;;;;;;5051540;28;20482;-52
2023/01/25 02:46:28;;;;;;;19.27;12.17;;;4.60;1.00;;;;;;5047042;28;20419;-54
2023/01/25 02:48:55;;;;;;;19.10;12.10;;;4.60;1.00;;;;;;5042686;28;21108;-54
2023/01/25 02:51:23;;;;;;;16.33;10.97;;;4.80;1.00;;;;;;5045093;28;20507;-54
2023/01/25 02:53:49;;;;;;;17.80;12.20;;;4.80;1.00;;;;;;5041942;28;20418;-55
2023/01/25 02:56:15;;;;;;;17.37;13.10;;;4.90;1.00;;;;;;5047629;28;20956;-54
2023/01/25 02:58:41;;;;;;;21.23;12.80;;;5.00;1.00;;;;;;5043271;28;20433;-53
2023/01/25 03:01:07;;;;;;;20.10;13.40;;;5.00;1.00;;;;;;5046932;28;20444;-52
2023/01/25 03:03:33;;;;;;;20.97;13.10;;;5.00;1.00;;;;;;5045468;28;20546;-53
2023/01/25 03:05:59;;;;;;;22.10;12.73;;;5.10;1.00;;;;;;5045031;28;20594;-53
2023/01/25 03:08:24;;;;;;;18.00;12.97;;;5.00;1.00;;;;;;5046589;28;20186;-56
2023/01/25 03:10:50;;;;;;;19.00;12.53;;;5.00;1.00;;;;;;5043558;28;20203;-53
2023/01/25 03:13:15;;;;;;;22.97;14.63;;;5.00;1.00;;;;;;5043751;28;20182;-54
2023/01/25 03:15:41;;;;;;;19.27;12.97;;;4.90;1.00;;;;;;5043672;28;20735;-53
2023/01/25 03:18:07;;;;;;;19.37;12.97;;;4.90;1.00;;;;;;5044385;28;20195;-53
2023/01/25 03:20:32;;;;;;;24.80;14.50;;;4.90;1.00;;;;;;5044758;28;20217;-55
2023/01/25 03:22:58;;;;;;;21.37;13.23;;;4.90;1.00;;;;;;5040231;28;20998;-56
2023/01/25 03:25:23;;;;;;;19.30;13.50;;;5.00;1.00;;;;;;5043163;28;20310;-55
2023/01/25 03:27:49;;;;;;;21.03;14.00;;;5.00;1.00;;;;;;5044943;28;20198;-54
2023/01/25 03:30:14;;;;;;;21.00;13.20;;;5.00;1.00;;;;;;5046202;28;20226;-52
2023/01/25 03:32:40;;;;;;;20.80;14.90;;;5.00;1.00;;;;;;5047165;28;20183;-55
2023/01/25 03:35:06;;;;;;;17.37;12.27;;;4.90;1.00;;;;;;5051668;28;20273;-56
2023/01/25 03:37:33;;;;;;;24.13;14.70;;;5.00;1.00;;;;;;5046031;28;20711;-54
2023/01/25 03:39:59;;;;;;;20.43;12.93;;;5.00;1.00;;;;;;5043270;28;20468;-53
2023/01/25 03:42:24;;;;;;;21.10;12.93;;;4.90;1.00;;;;;;5047688;28;20536;-53
2023/01/25 03:44:50;;;;;;;19.93;11.27;;;4.90;1.00;;;;;;5045927;28;20198;-54
2023/01/25 03:47:16;;;;;;;23.77;13.57;;;4.90;1.00;;;;;;5044092;28;20202;-55
2023/01/25 03:49:42;;;;;;;20.10;13.17;;;4.90;1.00;;;;;;5044699;28;20237;-53
2023/01/25 03:52:08;;;;;;;20.47;11.90;;;4.90;1.00;;;;;;5046378;28;20462;-54
2023/01/25 03:54:33;;;;;;;19.10;12.07;;;5.00;1.00;;;;;;5045456;28;20481;-53
2023/01/25 03:56:59;;;;;;;22.43;14.13;;;5.00;1.00;;;;;;5041070;28;20194;-54
2023/01/25 03:59:25;;;;;;;17.83;12.97;;;4.90;1.00;;;;;;5048984;28;20189;-54
2023/01/25 04:01:51;;;;;;;18.80;12.90;;;4.80;1.00;;;;;;5047782;28;20637;-53
2023/01/25 04:04:16;;;;;;;21.63;13.40;;;4.80;1.00;;;;;;5045939;28;20269;-53
2023/01/25 04:06:42;;;;;;;19.87;13.20;;;4.70;1.00;;;;;;5043548;28;20219;-54
2023/01/25 04:09:08;;;;;;;12.73;9.03;;;4.70;1.00;;;;;;5047108;28;20211;-55
2023/01/25 04:11:33;;;;;;;16.70;11.43;;;4.80;1.00;;;;;;5047471;28;20211;-55
2023/01/25 04:13:59;;;;;;;17.00;11.83;;;4.70;1.00;;;;;;5042868;28;20191;-54
2023/01/25 04:16:26;;;;;;;17.33;11.10;;;4.70;1.00;;;;;;5044424;28;20260;-54
2023/01/25 04:18:51;;;;;;;20.07;13.30;;;4.70;1.00;;;;;;5052169;28;20190;-55
2023/01/25 04:21:17;;;;;;;17.53;11.50;;;4.70;1.00;;;;;;5048805;28;20451;-54
2023/01/25 04:23:43;;;;;;;21.97;14.00;;;4.60;1.00;;;;;;5047086;28;20941;-52
2023/01/25 04:26:11;;;;;;;21.83;13.30;;;4.60;1.00;;;;;;5042841;28;20213;-53
2023/01/25 04:28:37;;;;;;;17.50;12.57;;;4.40;1.00;;;;;;5045053;28;20583;-55
2023/01/25 04:31:04;;;;;;;16.10;13.47;;;4.40;1.00;;;;;;5046666;28;20484;-54
2023/01/25 04:33:30;;;;;;;22.17;13.17;;;4.40;1.00;;;;;;5044554;28;20508;-54
2023/01/25 04:35:56;;;;;;;20.33;13.00;;;4.50;1.00;;;;;;5048817;28;20480;-55
2023/01/25 04:38:22;;;;;;;15.40;10.43;;;4.60;1.00;;;;;;5051274;28;20518;-54
2023/01/25 04:40:47;;;;;;;18.20;11.87;;;4.60;1.00;;;;;;5058361;28;20525;-54
2023/01/25 04:43:15;;;;;;;20.97;12.70;;;4.50;1.00;;;;;;5048723;28;20210;-55
2023/01/25 04:45:40;;;;;;;17.83;11.63;;;4.40;1.00;;;;;;5047404;28;22057;-54
2023/01/25 04:48:11;;;;;;;17.37;11.33;;;4.40;1.00;;;;;;5047941;28;20552;-53
2023/01/25 04:50:40;;;;;;;18.07;12.20;;;4.40;1.00;;;;;;5045862;28;20620;-54
2023/01/25 04:53:07;;;;;;;17.10;11.50;;;4.40;1.00;;;;;;5048258;28;20445;-53
2023/01/25 04:55:33;;;;;;;18.73;10.83;;;4.50;1.00;;;;;;5043118;28;20416;-55
2023/01/25 04:57:59;;;;;;;19.23;12.03;;;4.60;1.00;;;;;;5049561;28;20501;-54
2023/01/25 05:00:26;;;;;;;21.20;11.90;;;4.60;1.00;;;;;;5048905;28;20460;-54
2023/01/25 05:02:52;;;;;;;18.13;10.77;;;4.60;1.00;;;;;;5047838;28;20814;-53
2023/01/25 05:05:18;;;;;;;17.60;12.90;;;4.60;1.00;;;;;;5043171;28;20459;-54
2023/01/25 05:07:44;;;;;;;18.00;12.47;;;4.60;1.00;;;;;;5039048;28;20456;-53
2023/01/25 05:10:10;;;;;;;23.73;12.90;;;4.50;1.00;;;;;;5043718;28;20222;-55
2023/01/25 05:12:35;;;;;;;16.23;10.23;;;4.60;1.00;;;;;;5048864;28;20198;-54
2023/01/25 05:15:01;;;;;;;16.83;12.07;;;4.50;1.00;;;;;;5047262;28;20518;-56
2023/01/25 05:17:27;;;;;;;20.20;12.37;;;4.60;1.00;;;;;;5048873;28;20186;-54
2023/01/25 05:19:52;;;;;;;18.30;10.43;;;4.60;1.00;;;;;;5048004;28;20197;-52
2023/01/25 05:22:21;;;;;;;18.93;12.97;;;4.60;1.00;;;;;;5048257;28;20181;-52
2023/01/25 05:24:47;;;;;;;16.77;10.80;;;4.60;1.00;;;;;;5043741;28;20678;-54
2023/01/25 05:27:15;;;;;;;18.30;11.43;;;4.50;1.00;;;;;;5050045;28;20435;-54
2023/01/25 05:29:43;;;;;;;17.20;11.73;;;4.60;1.00;;;;;;5049006;28;20439;-54
2023/01/25 05:32:11;;;;;;;16.10;10.90;;;4.60;1.00;;;;;;5049926;28;20422;-55
2023/01/25 05:34:37;;;;;;;19.07;10.70;;;4.60;1.00;;;;;;5047939;28;20455;-56
2023/01/25 05:37:05;;;;;;;17.87;12.37;;;4.50;1.00;;;;;;5042164;28;20450;-53
2023/01/25 05:39:31;;;;;;;17.90;12.20;;;4.60;1.00;;;;;;5045512;28;20463;-54
2023/01/25 05:41:57;;;;;;;21.27;12.47;;;4.60;1.00;;;;;;5045990;28;20531;-54
2023/01/25 05:44:23;;;;;;;17.57;10.73;;;4.60;1.00;;;;;;5046413;28;20181;-55
2023/01/25 05:46:48;;;;;;;20.07;12.50;;;4.60;1.00;;;;;;5041130;28;20202;-54
2023/01/25 05:49:15;;;;;;;18.83;12.70;;;4.60;1.00;;;;;;5046806;28;20464;-53
2023/01/25 05:51:44;;;;;;;17.70;11.53;;;4.50;1.00;;;;;;5054542;28;20229;-55
2023/01/25 05:54:16;;;;;;;18.60;11.73;;;4.60;1.00;;;;;;5042806;28;20434;-57
2023/01/25 05:56:43;;;;;;;23.73;11.53;;;4.50;1.00;;;;;;5053791;28;20445;-53
2023/01/25 05:59:12;;;;;;;15.47;10.53;;;4.50;1.00;;;;;;5045218;28;20531;-56
2023/01/25 06:01:38;;;;;;;16.43;10.60;;;4.50;1.00;;;;;;5055873;28;21011;-55
2023/01/25 06:04:04;;;;;;;14.40;10.87;;;4.50;1.00;;;;;;5054021;28;20531;-55
2023/01/25 06:06:30;;;;;;;19.60;11.60;;;4.40;1.00;;;;;;5039838;28;20209;-54
2023/01/25 06:08:55;;;;;;;16.10;11.30;;;4.50;1.00;;;;;;5046411;28;20197;-54
2023/01/25 06:11:23;;;;;;;18.73;11.53;;;4.50;1.00;;;;;;5047677;28;20213;-55
2023/01/25 06:13:49;;;;;;;15.07;10.80;;;4.50;1.00;;;;;;5047028;28;20240;-55
2023/01/25 06:16:16;;;;;;;19.10;12.10;;;4.50;1.00;;;;;;5048616;28;21077;-55
2023/01/25 06:18:42;;;;;;;21.43;11.37;;;4.60;1.00;;;;;;5045066;28;20537;-55
2023/01/25 06:21:08;;;;;;;19.70;12.80;;;4.50;1.00;;;;;;5045868;28;20907;-55
2023/01/25 06:23:34;;;;;;;18.70;12.47;;;4.40;1.00;;;;;;5044562;28;20705;-55
2023/01/25 06:26:02;;;;;;;20.87;13.23;;;4.40;1.00;;;;;;5046968;28;20251;-54
2023/01/25 06:28:32;;;;;;;19.53;12.37;;;4.50;1.00;;;;;;5043737;28;20178;-52
2023/01/25 06:31:07;;;;;;;23.17;14.27;;;4.40;1.00;;;;;;5042804;28;20467;-55
2023/01/25 06:33:33;;;;;;;19.70;12.47;;;4.50;1.00;;;;;;5039960;28;20819;-56
2023/01/25 06:36:19;;;;;;;17.73;10.00;;;4.60;1.00;;;;;;5045392;28;20455;-55
2023/01/25 06:38:50;;;;;;;20.57;10.47;;;4.60;1.00;;;;;;5044801;28;20440;-53
2023/01/25 06:41:16;;;;;;;17.53;10.60;;;4.60;1.00;;;;;;5047561;28;20486;-52
2023/01/25 06:43:41;;;;;;;18.27;11.23;;;4.70;1.00;;;;;;5048818;28;20429;-54
2023/01/25 06:46:10;;;;;;;18.70;11.60;;;4.70;1.00;;;;;;5057918;28;20234;-53
2023/01/25 06:48:36;;;;;;;19.03;12.10;;;4.70;1.00;;;;;;5045496;28;20667;-55
2023/01/25 06:51:05;;;;;;;20.07;11.20;;;4.70;1.00;;;;;;5046429;28;20474;-53
2023/01/25 06:53:33;;;;;;;18.03;11.63;;;4.60;1.00;;;;;;5046853;28;20976;-54
2023/01/25 06:56:04;;;;;;;18.07;11.90;;;4.70;1.00;;;;;;5049049;28;20438;-54
2023/01/25 06:58:31;;;;;;;22.60;10.80;;;4.60;1.00;;;;;;5049148;28;20444;-56
2023/01/25 07:01:04;;;;;;;21.10;12.67;;;4.60;1.00;;;;;;5047499;28;20953;-54
2023/01/25 07:03:31;;;;;;;18.47;12.30;;;4.40;1.00;;;;;;5040208;28;20479;-54
2023/01/25 07:06:01;;;;;;;20.20;11.53;;;4.50;1.00;;;;;;5043666;28;20487;-53
2023/01/25 07:08:27;;;;;;;17.40;10.37;;;4.50;1.00;;;;;;5042351;28;21176;-54
2023/01/25 07:10:59;;;;;;;16.63;11.87;;;4.60;1.00;;;;;;5047816;28;20468;-52
2023/01/25 07:13:26;;;;;;;15.10;10.13;;;4.60;1.00;;;;;;5046100;28;20449;-53
2023/01/25 07:15:57;;;;;;;18.17;11.97;;;4.70;1.00;;;;;;5041610;28;20487;-55
2023/01/25 07:18:23;;;;;;;15.00;11.30;;;4.70;1.00;;;;;;5044438;28;20570;-53
2023/01/25 07:20:49;;;;;;;13.93;10.00;;;4.70;1.00;;;;;;5045646;28;20516;-54
2023/01/25 07:23:15;;;;;;;19.87;10.87;;;4.90;1.00;;;;;;5046962;28;20453;-57
2023/01/25 07:25:49;;;;;;;17.63;11.97;;;4.90;1.00;;;;;;5043842;28;20473;-53
2023/01/25 07:28:16;;;;;;;18.10;11.80;;;4.90;1.00;;;;;;5043656;28;20529;-55
2023/01/25 07:30:42;;;;;;;16.17;10.40;;;4.80;1.00;;;;;;5045426;28;20465;-54
2023/01/25 07:33:09;;;;;;;16.73;11.47;;;4.80;1.00;;;;;;5048750;28;20805;-53
2023/01/25 07:35:35;;;;;;;15.00;11.00;;;4.80;1.00;;;;;;5050748;28;20532;-55
2023/01/25 07:38:01;;;;;;;17.80;12.10;;;4.90;1.00;;;;;;5050520;28;20563;-55
2023/01/25 07:40:27;;;;;;;17.27;11.30;;;4.80;1.00;;;;;;5047211;28;21025;-54
2023/01/25 07:42:53;;;;;;;20.17;12.07;;;4.80;1.00;;;;;;5046527;28;20924;-54
2023/01/25 07:45:19;;;;;;;18.13;10.80;;;4.90;1.00;;;;;;5051500;28;20201;-55
2023/01/25 07:47:44;;;;;;;17.67;11.07;;;4.80;1.00;;;;;;5033430;28;20218;-55
2023/01/25 07:50:10;;;;;;;17.43;11.80;;;4.90;1.00;;;;;;5050086;28;20519;-54
2023/01/25 07:52:36;;;;;;;14.47;9.97;;;4.90;1.00;;;;;;5052195;28;20682;-54
2023/01/25 07:55:02;;;;;;;16.03;10.37;;;4.90;1.00;;;;;;5046278;28;20453;-54
2023/01/25 07:57:28;;;;;;;19.67;11.57;;;4.80;1.00;;;;;;5047687;28;20221;-55
2023/01/25 07:59:53;;;;;;;15.83;11.10;;;4.90;1.00;;;;;;5049249;28;20455;-54
2023/01/25 08:02:20;;;;;;;17.30;11.33;;;4.90;1.00;;;;;;5046569;28;20290;-53
2023/01/25 08:04:45;;;;;;;16.83;12.07;;;4.90;1.00;;;;;;5050991;28;20225;-53
2023/01/25 08:07:12;;;;;;;19.13;13.07;;;5.00;1.00;;;;;;5050881;28;20444;-53
2023/01/25 08:09:39;;;;;;;17.70;13.07;;;5.00;1.00;;;;;;5050202;28;20186;-54
2023/01/25 08:12:05;;;;;;;19.70;13.40;;;5.10;1.00;;;;;;5045083;28;20509;-53
2023/01/25 08:14:31;;;;;;;16.83;11.47;;;5.10;1.00;;;;;;5051909;28;20453;-54
2023/01/25 08:16:57;;;;;;;17.50;11.37;;;5.20;1.00;;;;;;5050423;28;20468;-56
2023/01/25 08:19:23;;;;;;;16.00;12.10;;;5.30;1.00;;;;;;5050075;28;20195;-55
2023/01/25 08:21:49;;;;;;;16.57;11.90;;;5.20;1.00;;;;;;5045194;28;20830;-54
2023/01/25 08:24:15;;;;;;;18.73;12.33;;;5.30;1.00;;;;;;5051473;28;20536;-56
2023/01/25 08:26:42;;;;;;;17.20;11.50;;;5.30;1.00;;;;;;5049922;28;20191;-53
2023/01/25 08:29:10;;;;;;;18.50;10.70;;;5.20;1.00;;;;;;5048629;28;20224;-55
2023/01/25 08:31:38;;;;;;;13.07;10.53;;;5.20;1.00;;;;;;5043991;28;20997;-54
2023/01/25 08:34:04;;;;;;;17.90;12.50;;;5.10;1.00;;;;;;5048975;28;20459;-54
2023/01/25 08:36:30;;;;;;;17.97;12.57;;;5.10;1.00;;;;;;5048369;28;20445;-56
2023/01/25 08:38:57;;;;;;;20.80;12.97;;;5.10;1.00;;;;;;5054321;28;20433;-53
2023/01/25 08:41:24;;;;;;;19.67;12.40;;;5.10;1.00;;;;;;5049448;28;20202;-55
2023/01/25 08:43:52;;;;;;;20.60;13.33;;;5.30;1.00;;;;;;5050057;28;20445;-55
2023/01/25 08:46:18;;;;;;;18.40;12.83;;;5.10;1.00;;;;;;5051321;28;20495;-54
2023/01/25 08:48:44;;;;;;;17.63;12.57;;;5.00;1.00;;;;;;5051360;28;20441;-54
2023/01/25 08:51:15;;;;;;;18.90;12.87;;;5.00;1.00;;;;;;5050133;28;20598;-60
2023/01/25 08:53:41;;;;;;;15.97;11.10;;;5.00;1.00;;;;;;5050592;28;20441;-55
2023/01/25 08:56:10;;;;;;;15.50;11.40;;;5.00;1.00;;;;;;5051189;28;20772;-56
2023/01/25 08:58:37;;;;;;;21.00;13.60;;;5.10;1.00;;;;;;5051070;28;20931;-55
2023/01/25 09:01:06;;;;;;;13.07;10.80;;;5.00;1.00;;;;;;5049372;28;20442;-54
2023/01/25 09:03:35;;;;;;;16.33;11.10;;;5.10;1.00;;;;;;5051066;28;20445;-54
2023/01/25 09:06:00;;;;;;;11.77;8.77;;;5.20;1.00;;;;;;5047974;28;20475;-54
2023/01/25 09:08:26;;;;;;;14.17;10.50;;;5.10;1.00;;;;;;5053713;28;20440;-55
2023/01/25 09:10:52;;;;;;;17.23;11.40;;;5.10;1.00;;;;;;5069782;28;20259;-55
2023/01/25 09:13:17;;;;;;;27.30;11.40;;;5.20;1.00;;;;;;5045307;28;20186;-53
2023/01/25 09:15:43;;;;;;;38.30;15.50;;;5.20;1.00;;;;;;5048240;28;20178;-55
2023/01/25 09:18:09;;;;;;;19.83;11.50;;;5.10;1.00;;;;;;5043568;28;20248;-54
2023/01/25 09:20:38;;;;;;;13.43;10.13;;;5.20;1.00;;;;;;5052453;28;20234;-55
2023/01/25 09:23:04;;;;;;;14.60;10.97;;;5.30;1.00;;;;;;5050616;28;20893;-55
2023/01/25 09:25:29;;;;;;;16.30;10.60;;;5.40;1.00;;;;;;5057563;28;20456;-55
2023/01/25 09:27:55;;;;;;;17.57;11.97;;;5.40;1.00;;;;;;5057583;28;20330;-54
2023/01/25 09:30:21;;;;;;;15.70;11.87;;;5.50;1.00;;;;;;5047883;28;20215;-54
2023/01/25 09:32:49;;;;;;;16.87;11.50;;;5.50;1.00;;;;;;5049241;28;20671;-55
2023/01/25 09:35:15;;;;;;;16.20;11.80;;;5.60;1.00;;;;;;5047518;28;20237;-53
2023/01/25 09:37:41;;;;;;;15.40;11.50;;;5.60;1.00;;;;;;5050515;28;20467;-55
2023/01/25 09:40:19;;;;;;;19.90;11.60;;;5.50;1.00;;;;;;5044335;28;20469;-57
2023/01/25 09:43:08;;;;;;;20.30;12.80;;;5.50;1.00;;;;;;5040583;28;20634;-54
2023/01/25 09:45:36;;;;;;;19.20;12.03;;;5.50;1.00;;;;;;5043652;28;20531;-55
2023/01/25 09:48:20;;;;;;;14.93;11.67;;;5.50;1.00;;;;;;5046535;28;21007;-54
2023/01/25 09:51:22;;;;;;;18.77;13.30;;;5.60;1.00;;;;;;5049897;28;20595;-54
2023/01/25 09:53:50;;;;;;;20.37;14.37;;;5.60;1.00;;;;;;5046072;28;20453;-55
2023/01/25 09:56:23;;;;;;;22.10;11.40;;;5.60;1.00;;;;;;5049104;28;20434;-55
2023/01/25 09:58:52;;;;;;;16.87;11.30;;;5.70;1.00;;;;;;5043111;28;20803;-54
2023/01/25 10:01:33;;;;;;;18.10;12.23;;;5.60;1.00;;;;;;5045089;28;21067;-53
2023/01/25 10:04:09;;;;;;;19.30;12.40;;;5.60;1.00;;;;;;5050057;28;20488;-54
2023/01/25 10:06:38;;;;;;;18.77;12.43;;;5.60;1.00;;;;;;5047285;28;20968;-55
2023/01/25 10:09:37;;;;;;;16.00;11.60;;;5.60;1.00;;;;;;5050101;28;20784;-54
2023/01/25 10:12:20;;;;;;;17.80;11.30;;;5.60;1.00;;;;;;5045387;28;20507;-55
2023/01/25 10:14:47;;;;;;;18.90;12.97;;;5.70;1.00;;;;;;5047573;28;20453;-53
2023/01/25 10:17:33;;;;;;;17.37;12.10;;;5.70;1.00;;;;;;5046202;28;20511;-54
2023/01/25 10:20:17;;;;;;;20.90;12.30;;;5.70;1.00;;;;;;5047831;28;20530;-53
2023/01/25 10:22:49;;;;;;;17.43;12.13;;;5.80;1.00;;;;;;5044772;28;20455;-54
2023/01/25 10:25:30;;;;;;;18.53;12.87;;;5.80;1.00;;;;;;5041813;28;20835;-55
2023/01/25 10:28:05;;;;;;;19.77;13.43;;;5.80;1.00;;;;;;5036773;28;20443;-55
2023/01/25 10:30:54;;;;;;;16.57;11.23;;;5.70;1.00;;;;;;5036812;28;21026;-55
2023/01/25 10:33:20;;;;;;;17.63;11.83;;;5.60;1.00;;;;;;5041025;28;20979;-54
2023/01/25 10:35:48;;;;;;;19.73;12.93;;;5.50;1.00;;;;;;5035023;28;20939;-54
2023/01/25 10:38:45;;;;;;;17.80;13.30;;;5.60;1.00;;;;;;5038856;28;20449;-55
2023/01/25 10:41:25;;;;;;;15.10;11.53;;;5.70;1.00;;;;;;5040608;28;20458;-55
2023/01/25 10:44:20;;;;;;;19.03;12.37;;;5.60;1.00;;;;;;5040310;28;20453;-55
2023/01/25 10:46:38;;;;;;;21.07;12.80;;;5.60;1.00;;;;;;5049450;28;20440;-54
2023/01/25 10:49:33;;;;;;;18.00;12.30;;;5.80;1.00;;;;;;5039675;28;20491;-54
2023/01/25 10:52:13;;;;;;;16.23;12.00;;;5.80;1.00;;;;;;5041995;28;20491;-55
2023/01/25 10:54:38;;;;;;;17.60;12.80;;;5.80;1.00;;;;;;5038260;28;20531;-56
2023/01/25 10:57:07;;;;;;;16.67;11.60;;;5.80;1.00;;;;;;5046109;28;20547;-55
2023/01/25 10:59:34;;;;;;;15.10;10.80;;;5.80;1.00;;;;;;5040179;28;20185;-55
2023/01/25 11:02:59;;;;;;;15.40;11.57;;;5.80;1.00;;;;;;5043019;28;20505;-54
2023/01/25 11:05:36;;;;;;;13.60;10.33;;;5.80;1.00;;;;;;5006631;28;20477;-54
2023/01/25 11:08:22;;;;;;;16.37;10.57;;;5.80;1.00;;;;;;5009617;28;20454;-53
2023/01/25 11:10:49;;;;;;;13.80;10.17;;;5.90;1.00;;;;;;5035020;28;20514;-54
2023/01/25 11:13:15;;;;;;;15.83;10.83;;;5.80;1.00;;;;;;5047575;28;20442;-55
2023/01/25 11:16:17;;;;;;;12.80;10.10;;;5.90;1.00;;;;;;5049845;28;20446;-53
2023/01/25 11:18:50;;;;;;;12.90;10.70;;;5.90;1.00;;;;;;5042617;28;20277;-54
2023/01/25 11:21:21;;;;;;;13.57;10.23;;;5.80;1.00;;;;;;5049007;28;20791;-54
2023/01/25 11:24:10;;;;;;;13.80;9.60;;;5.80;1.00;;;;;;5049367;28;20454;-55
2023/01/25 11:26:38;;;;;;;12.70;9.40;;;5.80;1.00;;;;;;5048559;28;20427;-56
2023/01/25 11:29:21;;;;;;;9.73;8.10;;;5.80;1.00;;;;;;5049428;28;20448;-55
2023/01/25 11:31:57;;;;;;;13.00;9.40;;;5.70;1.00;;;;;;5046073;28;21780;-53
2023/01/25 11:34:28;;;;;;;16.43;10.23;;;5.70;1.00;;;;;;5052780;28;20452;-55
2023/01/25 11:37:14;;;;;;;13.37;10.50;;;5.60;1.00;;;;;;5063451;28;20454;-56
2023/01/25 11:39:43;;;;;;;11.50;9.93;;;5.70;1.00;;;;;;5052840;28;20448;-55
2023/01/25 11:42:32;;;;;;;12.33;8.53;;;5.70;1.00;;;;;;5047003;28;20465;-54
2023/01/25 11:45:31;;;;;;;10.20;8.00;;;5.70;1.00;;;;;;5046983;28;20469;-54
2023/01/25 11:48:14;;;;;;;15.60;9.80;;;5.70;1.00;;;;;;5051600;28;20523;-55
2023/01/25 11:50:44;;;;;;;14.80;9.43;;;5.80;1.00;;;;;;5051867;28;20484;-54
2023/01/25 11:53:52;;;;;;;14.00;9.70;;;5.80;1.00;;;;;;5052127;28;20476;-56
2023/01/25 11:56:58;;;;;;;12.53;9.03;;;5.80;1.00;;;;;;5010254;28;20531;-54
2023/01/25 11:59:53;;;;;;;11.60;9.00;;;5.80;1.00;;;;;;5050463;28;20811;-54
2023/01/25 12:02:47;;;;;;;12.40;9.53;;;5.80;1.00;;;;;;5067534;28;20435;-55
2023/01/25 12:05:34;;;;;;;12.60;9.80;;;5.70;1.00;;;;;;5052162;28;20468;-55
2023/01/25 12:08:30;;;;;;;13.30;9.33;;;5.90;1.00;;;;;;5061214;28;20935;-54
2023/01/25 12:11:18;;;;;;;15.13;9.37;;;5.90;1.00;;;;;;5051147;28;20464;-56
2023/01/25 12:14:05;;;;;;;12.60;8.33;;;5.80;1.00;;;;;;5051872;28;20482;-56
2023/01/25 12:16:59;;;;;;;13.27;8.93;;;5.80;1.00;;;;;;5050953;28;20753;-55
2023/01/25 12:19:54;;;;;;;11.17;8.60;;;5.70;1.00;;;;;;5051250;28;20490;-54
2023/01/25 12:22:47;;;;;;;11.77;8.73;;;5.70;1.00;;;;;;5046749;28;20443;-54
2023/01/25 12:25:29;;;;;;;12.23;9.43;;;5.60;1.00;;;;;;5043786;28;20769;-54
2023/01/25 12:28:24;;;;;;;14.47;10.17;;;5.70;1.00;;;;;;5042675;28;20584;-53
2023/01/25 12:30:52;;;;;;;13.67;9.53;;;5.80;1.00;;;;;;5051460;28;20464;-53
2023/01/25 12:34:01;;;;;;;10.37;7.53;;;5.90;1.00;;;;;;5051471;28;20465;-55
2023/01/25 12:36:32;;;;;;;10.73;7.53;;;5.90;1.00;;;;;;5028109;28;20476;-55
2023/01/25 12:39:12;;;;;;;9.57;8.57;;;5.80;1.00;;;;;;5050674;28;20449;-54
2023/01/25 12:41:53;;;;;;;11.23;8.50;;;5.80;1.00;;;;;;5051456;28;20934;-53
2023/01/25 12:44:40;;;;;;;9.90;8.13;;;5.80;1.00;;;;;;5051329;28;20453;-55
2023/01/25 12:47:44;;;;;;;13.17;9.20;;;5.80;1.00;;;;;;5049902;28;20817;-55
2023/01/25 12:50:37;;;;;;;13.53;8.80;;;5.80;1.00;;;;;;5049256;28;20809;-53
2023/01/25 12:53:45;;;;;;;11.50;8.77;;;5.80;1.00;;;;;;5032265;28;20449;-54
2023/01/25 12:56:29;;;;;;;12.80;9.50;;;5.90;1.00;;;;;;5008266;28;20606;-57
2023/01/25 12:59:19;;;;;;;12.27;8.70;;;5.90;1.00;;;;;;5008590;28;20442;-54
2023/01/25 13:01:53;;;;;;;12.40;8.40;;;5.90;1.00;;;;;;5041519;28;20437;-55
2023/01/25 13:04:48;;;;;;;11.50;7.30;;;5.90;1.00;;;;;;5047785;28;20441;-55
2023/01/25 13:07:42;;;;;;;11.87;8.57;;;6.00;1.00;;;;;;5050181;28;20432;-54
2023/01/25 13:10:20;;;;;;;14.80;8.23;;;5.90;1.00;;;;;;5059346;28;20478;-54